Terminal Aerodrome Forecast
Issued by NWS

Current Version | Previous Version | Graphics & Text | Print | Product List | Glossary On
Versions: 1 2 3 4 5 6 7 8 9 10 11 12 13 14 15 16 17 18 19
492
FTUS41 KPBZ 251123
TAFHLG
TAF
KHLG 251123Z 2512/2612 09012KT P6SM OVC080
     FM260400 09006KT P6SM BKN025
     FM260900 VRB03KT P6SM OVC015=

USA.gov is the U.S. government's official web portal to all federal, state and local government web resources and services.